NOZ1150 ENGM-EDDL
Flight info
| Callsign | NOZ1150 |
|---|---|
| Flight time | 1h 29m |
| Altitude | 38000 |
| Route | VIPPA DCT GIGUT DCT AMRAK DCT KEGAB DCT DENOL/N0374F260 T851 HALME HALME1A |
| Aircraft | B38M/M-SDE2E3GHIJ1LRWXY/LB2 |
Departure
| Time | 2026-05-05 10:29 |
|---|---|
| Airport | Oslo-Gardermoen International Airport (ENGM) |
Arrival
| Time | 2026-05-05 11:59 |
|---|---|
| Airport | Düsseldorf Airport (EDDL) |
| Time | Latitude | Longitude | Altitude | Speed | Heading |
|---|---|---|---|---|---|
| 2026-05-05 09:56 | 60.19671 | 11.09973 | 687 ft | 0 kts | 106° |
| 2026-05-05 10:19 | 60.19671 | 11.09971 | 687 ft | 2 kts | 106° |
| 2026-05-05 10:20 | 60.19678 | 11.09923 | 686 ft | 4 kts | 106° |
| 2026-05-05 10:20 | 60.19682 | 11.09890 | 682 ft | 1 kts | 106° |
| 2026-05-05 10:23 | 60.19682 | 11.09891 | 687 ft | 0 kts | 109° |
| 2026-05-05 10:24 | 60.19679 | 11.09894 | 682 ft | 2 kts | 149° |
| 2026-05-05 10:24 | 60.19662 | 11.09868 | 687 ft | 5 kts | 257° |
| 2026-05-05 10:24 | 60.19703 | 11.09771 | 685 ft | 13 kts | 353° |
| 2026-05-05 10:24 | 60.19802 | 11.09820 | 687 ft | 16 kts | 16° |
| 2026-05-05 10:25 | 60.19923 | 11.09891 | 681 ft | 16 kts | 16° |
| 2026-05-05 10:25 | 60.19987 | 11.09885 | 685 ft | 10 kts | 311° |
| 2026-05-05 10:25 | 60.20020 | 11.09681 | 686 ft | 21 kts | 286° |
| 2026-05-05 10:25 | 60.20062 | 11.09376 | 684 ft | 20 kts | 286° |
| 2026-05-05 10:26 | 60.20101 | 11.09108 | 679 ft | 21 kts | 286° |
| 2026-05-05 10:26 | 60.20139 | 11.08907 | 680 ft | 10 kts | 328° |
| 2026-05-05 10:26 | 60.20220 | 11.08930 | 681 ft | 17 kts | 17° |
| 2026-05-05 10:26 | 60.20363 | 11.09011 | 682 ft | 24 kts | 16° |
| 2026-05-05 10:27 | 60.20507 | 11.09095 | 685 ft | 21 kts | 16° |
| 2026-05-05 10:27 | 60.20626 | 11.09136 | 681 ft | 13 kts | 325° |
| 2026-05-05 10:27 | 60.20662 | 11.08950 | 680 ft | 16 kts | 286° |
| 2026-05-05 10:27 | 60.20692 | 11.08746 | 680 ft | 13 kts | 288° |
| 2026-05-05 10:28 | 60.20700 | 11.08698 | 682 ft | 6 kts | 287° |
| 2026-05-05 10:28 | 60.20680 | 11.08632 | 680 ft | 9 kts | 197° |
| 2026-05-05 10:28 | 60.20510 | 11.08534 | 681 ft | 61 kts | 196° |
| 2026-05-05 10:28 | 60.19826 | 11.08140 | 677 ft | 141 kts | 195° |
| 2026-05-05 10:29 | 60.18675 | 11.07463 | 850 ft | 193 kts | 200° |
| 2026-05-05 10:29 | 60.17373 | 11.06572 | 2030 ft | 192 kts | 204° |
| 2026-05-05 10:29 | 60.16287 | 11.04949 | 3017 ft | 207 kts | 240° |
| 2026-05-05 10:29 | 60.15663 | 11.02217 | 3924 ft | 226 kts | 248° |
| 2026-05-05 10:30 | 60.15014 | 10.99269 | 5111 ft | 229 kts | 248° |
| 2026-05-05 10:30 | 60.14358 | 10.96318 | 6239 ft | 234 kts | 248° |
| 2026-05-05 10:30 | 60.13553 | 10.93456 | 7260 ft | 240 kts | 231° |
| 2026-05-05 10:30 | 60.12230 | 10.91353 | 8300 ft | 248 kts | 211° |
| 2026-05-05 10:31 | 60.10592 | 10.90158 | 9307 ft | 256 kts | 191° |
| 2026-05-05 10:31 | 60.08806 | 10.89766 | 10288 ft | 261 kts | 189° |
| 2026-05-05 10:31 | 60.06989 | 10.89351 | 11166 ft | 266 kts | 190° |
| 2026-05-05 10:31 | 60.05096 | 10.88895 | 11809 ft | 281 kts | 191° |
| 2026-05-05 10:32 | 60.03111 | 10.88401 | 12507 ft | 293 kts | 191° |
| 2026-05-05 10:32 | 60.01096 | 10.87895 | 13315 ft | 298 kts | 192° |
| 2026-05-05 10:32 | 59.99029 | 10.87383 | 14170 ft | 300 kts | 195° |
| 2026-05-05 10:32 | 59.96961 | 10.86858 | 15031 ft | 299 kts | 196° |
| 2026-05-05 10:33 | 59.94886 | 10.86335 | 15837 ft | 301 kts | 197° |
| 2026-05-05 10:33 | 59.92812 | 10.85817 | 16660 ft | 302 kts | 198° |
| 2026-05-05 10:33 | 59.90729 | 10.85296 | 17547 ft | 300 kts | 200° |
| 2026-05-05 10:33 | 59.88664 | 10.84786 | 18448 ft | 296 kts | 200° |
| 2026-05-05 10:34 | 59.86603 | 10.84275 | 19036 ft | 301 kts | 201° |
| 2026-05-05 10:34 | 59.84518 | 10.83750 | 19692 ft | 303 kts | 201° |
| 2026-05-05 10:34 | 59.82417 | 10.83226 | 20322 ft | 305 kts | 201° |
| 2026-05-05 10:34 | 59.80305 | 10.82699 | 20950 ft | 307 kts | 201° |
| 2026-05-05 10:35 | 59.78183 | 10.82171 | 21570 ft | 308 kts | 202° |
| 2026-05-05 10:35 | 59.76740 | 10.81813 | 21994 ft | 310 kts | 202° |
| 2026-05-05 10:35 | 59.74595 | 10.81280 | 22619 ft | 312 kts | 202° |
| 2026-05-05 10:35 | 59.72435 | 10.80747 | 23143 ft | 314 kts | 201° |
| 2026-05-05 10:36 | 59.70249 | 10.80209 | 23615 ft | 320 kts | 201° |
| 2026-05-05 10:36 | 59.68031 | 10.79662 | 24083 ft | 323 kts | 200° |
| 2026-05-05 10:36 | 59.65822 | 10.79118 | 24570 ft | 325 kts | 200° |
| 2026-05-05 10:36 | 59.63567 | 10.78564 | 25067 ft | 328 kts | 200° |
| 2026-05-05 10:37 | 59.61293 | 10.78005 | 25573 ft | 330 kts | 200° |
| 2026-05-05 10:37 | 59.59007 | 10.77444 | 26058 ft | 334 kts | 200° |
| 2026-05-05 10:37 | 59.56656 | 10.76858 | 26162 ft | 349 kts | 199° |
| 2026-05-05 10:37 | 59.54191 | 10.76241 | 26196 ft | 365 kts | 199° |
| 2026-05-05 10:38 | 59.51627 | 10.75605 | 26324 ft | 378 kts | 198° |
| 2026-05-05 10:38 | 59.48983 | 10.74955 | 26544 ft | 387 kts | 198° |
| 2026-05-05 10:38 | 59.46286 | 10.74297 | 26874 ft | 393 kts | 198° |
| 2026-05-05 10:38 | 59.43567 | 10.73635 | 27237 ft | 395 kts | 197° |
| 2026-05-05 10:39 | 59.40818 | 10.72969 | 27639 ft | 399 kts | 197° |
| 2026-05-05 10:39 | 59.38054 | 10.72299 | 28073 ft | 402 kts | 197° |
| 2026-05-05 10:39 | 59.35271 | 10.71626 | 28508 ft | 404 kts | 197° |
| 2026-05-05 10:39 | 59.32468 | 10.70949 | 28935 ft | 407 kts | 196° |
| 2026-05-05 10:40 | 59.29666 | 10.70273 | 29393 ft | 410 kts | 196° |
| 2026-05-05 10:40 | 59.26831 | 10.69591 | 29808 ft | 412 kts | 196° |
| 2026-05-05 10:40 | 59.23976 | 10.68905 | 30175 ft | 415 kts | 196° |
| 2026-05-05 10:40 | 59.21105 | 10.68217 | 30506 ft | 417 kts | 196° |
| 2026-05-05 10:41 | 59.18212 | 10.67524 | 30814 ft | 420 kts | 196° |
| 2026-05-05 10:41 | 59.15303 | 10.66830 | 31078 ft | 422 kts | 195° |
| 2026-05-05 10:41 | 59.12377 | 10.66132 | 31351 ft | 426 kts | 195° |
| 2026-05-05 10:41 | 59.09425 | 10.65429 | 31646 ft | 428 kts | 195° |
| 2026-05-05 10:42 | 59.03485 | 10.64020 | 32362 ft | 430 kts | 195° |
| 2026-05-05 10:42 | 59.00518 | 10.63320 | 32794 ft | 430 kts | 195° |
| 2026-05-05 10:42 | 58.97552 | 10.62621 | 33212 ft | 429 kts | 195° |
| 2026-05-05 10:43 | 58.94591 | 10.61925 | 33631 ft | 429 kts | 195° |
| 2026-05-05 10:43 | 58.91633 | 10.61230 | 34032 ft | 428 kts | 195° |
| 2026-05-05 10:43 | 58.88673 | 10.60537 | 34347 ft | 429 kts | 195° |
| 2026-05-05 10:43 | 58.85708 | 10.59843 | 34559 ft | 430 kts | 194° |
| 2026-05-05 10:44 | 58.82729 | 10.59145 | 34817 ft | 432 kts | 194° |
| 2026-05-05 10:44 | 58.79743 | 10.58448 | 35098 ft | 433 kts | 194° |
| 2026-05-05 10:44 | 58.76750 | 10.57750 | 35383 ft | 434 kts | 194° |
| 2026-05-05 10:44 | 58.73777 | 10.56844 | 35650 ft | 429 kts | 200° |
| 2026-05-05 10:45 | 58.70847 | 10.55672 | 35932 ft | 434 kts | 195° |
| 2026-05-05 10:45 | 58.67846 | 10.54851 | 36194 ft | 436 kts | 194° |
| 2026-05-05 10:45 | 58.64837 | 10.54070 | 36464 ft | 437 kts | 194° |
| 2026-05-05 10:45 | 58.61816 | 10.53274 | 36734 ft | 438 kts | 194° |
| 2026-05-05 10:46 | 58.58793 | 10.52466 | 36958 ft | 439 kts | 194° |
| 2026-05-05 10:46 | 58.55766 | 10.51649 | 37232 ft | 440 kts | 194° |
| 2026-05-05 10:46 | 58.52735 | 10.50822 | 37484 ft | 441 kts | 194° |
| 2026-05-05 10:46 | 58.49696 | 10.49974 | 37729 ft | 441 kts | 196° |
| 2026-05-05 10:47 | 58.46701 | 10.48797 | 37941 ft | 440 kts | 197° |
| 2026-05-05 10:47 | 58.40602 | 10.47506 | 37944 ft | 444 kts | 193° |
| 2026-05-05 10:48 | 58.34479 | 10.46063 | 37970 ft | 444 kts | 193° |
| 2026-05-05 10:48 | 58.28345 | 10.44703 | 37962 ft | 444 kts | 193° |
| 2026-05-05 10:49 | 58.22205 | 10.43359 | 37966 ft | 444 kts | 193° |
| 2026-05-05 10:49 | 58.16069 | 10.42022 | 37968 ft | 444 kts | 193° |
| 2026-05-05 10:50 | 58.09927 | 10.40687 | 37969 ft | 444 kts | 193° |
| 2026-05-05 10:50 | 58.03790 | 10.39360 | 37940 ft | 444 kts | 192° |
| 2026-05-05 10:51 | 57.97653 | 10.38035 | 37971 ft | 444 kts | 192° |
| 2026-05-05 10:51 | 57.91517 | 10.36716 | 37973 ft | 444 kts | 192° |
| 2026-05-05 10:52 | 57.85377 | 10.35400 | 37974 ft | 444 kts | 192° |
| 2026-05-05 10:52 | 57.79242 | 10.34090 | 37973 ft | 444 kts | 192° |
| 2026-05-05 10:53 | 57.73108 | 10.32786 | 37969 ft | 443 kts | 192° |
| 2026-05-05 10:53 | 57.66989 | 10.31487 | 37970 ft | 442 kts | 192° |
| 2026-05-05 10:54 | 57.60885 | 10.30197 | 37967 ft | 440 kts | 192° |
| 2026-05-05 10:54 | 57.54840 | 10.28924 | 37971 ft | 440 kts | 192° |
| 2026-05-05 10:55 | 57.48754 | 10.27648 | 37937 ft | 440 kts | 192° |
| 2026-05-05 10:55 | 57.42677 | 10.26375 | 37966 ft | 439 kts | 192° |
| 2026-05-05 10:56 | 57.36607 | 10.25109 | 37962 ft | 439 kts | 192° |
| 2026-05-05 10:56 | 57.30536 | 10.23847 | 37966 ft | 439 kts | 192° |
| 2026-05-05 10:57 | 57.24468 | 10.22590 | 37966 ft | 439 kts | 192° |
| 2026-05-05 10:57 | 57.18390 | 10.21336 | 37969 ft | 440 kts | 192° |
| 2026-05-05 10:58 | 57.12296 | 10.20081 | 37962 ft | 440 kts | 192° |
| 2026-05-05 10:58 | 57.06207 | 10.18832 | 37965 ft | 440 kts | 192° |
| 2026-05-05 10:59 | 57.00137 | 10.17592 | 37964 ft | 440 kts | 192° |
| 2026-05-05 10:59 | 56.94045 | 10.16352 | 37940 ft | 440 kts | 191° |
| 2026-05-05 11:00 | 56.87952 | 10.15113 | 37958 ft | 441 kts | 191° |
| 2026-05-05 11:00 | 56.81862 | 10.13880 | 37961 ft | 440 kts | 191° |
| 2026-05-05 11:01 | 56.75772 | 10.12652 | 37961 ft | 440 kts | 191° |
| 2026-05-05 11:01 | 56.69721 | 10.11435 | 37918 ft | 441 kts | 191° |
| 2026-05-05 11:02 | 56.63626 | 10.10213 | 37948 ft | 441 kts | 191° |
| 2026-05-05 11:02 | 56.57528 | 10.08994 | 37954 ft | 441 kts | 191° |
| 2026-05-05 11:03 | 56.51435 | 10.07781 | 37953 ft | 441 kts | 191° |
| 2026-05-05 11:03 | 56.45343 | 10.06572 | 37953 ft | 441 kts | 191° |
| 2026-05-05 11:04 | 56.39249 | 10.05366 | 37940 ft | 440 kts | 191° |
| 2026-05-05 11:04 | 56.33164 | 10.04166 | 37949 ft | 440 kts | 191° |
| 2026-05-05 11:05 | 56.27082 | 10.02970 | 37950 ft | 440 kts | 191° |
| 2026-05-05 11:05 | 56.21001 | 10.01778 | 37953 ft | 440 kts | 191° |
| 2026-05-05 11:06 | 56.14917 | 10.00591 | 37925 ft | 440 kts | 191° |
| 2026-05-05 11:06 | 56.08825 | 9.99404 | 37949 ft | 441 kts | 191° |
| 2026-05-05 11:07 | 56.02734 | 9.98221 | 37949 ft | 440 kts | 191° |
| 2026-05-05 11:07 | 55.96623 | 9.97039 | 37947 ft | 441 kts | 191° |
| 2026-05-05 11:08 | 55.90542 | 9.95866 | 37944 ft | 441 kts | 191° |
| 2026-05-05 11:08 | 55.84442 | 9.94693 | 37951 ft | 441 kts | 191° |
| 2026-05-05 11:09 | 55.78336 | 9.93522 | 37950 ft | 441 kts | 191° |
| 2026-05-05 11:09 | 55.72229 | 9.92356 | 37957 ft | 441 kts | 191° |
| 2026-05-05 11:10 | 55.66124 | 9.91193 | 37955 ft | 441 kts | 191° |
| 2026-05-05 11:10 | 55.60016 | 9.90033 | 37957 ft | 441 kts | 191° |
| 2026-05-05 11:11 | 55.53909 | 9.88877 | 37959 ft | 441 kts | 191° |
| 2026-05-05 11:11 | 55.47845 | 9.87733 | 37958 ft | 441 kts | 191° |
| 2026-05-05 11:12 | 55.41736 | 9.86584 | 37957 ft | 441 kts | 191° |
| 2026-05-05 11:12 | 55.35629 | 9.85439 | 37945 ft | 442 kts | 190° |
| 2026-05-05 11:13 | 55.29505 | 9.84294 | 37960 ft | 443 kts | 190° |
| 2026-05-05 11:13 | 55.23379 | 9.83152 | 37964 ft | 442 kts | 190° |
| 2026-05-05 11:14 | 55.17256 | 9.82015 | 37968 ft | 443 kts | 190° |
| 2026-05-05 11:14 | 55.11131 | 9.80881 | 37947 ft | 443 kts | 190° |
| 2026-05-05 11:15 | 55.04995 | 9.79747 | 37968 ft | 443 kts | 190° |
| 2026-05-05 11:15 | 54.98864 | 9.78619 | 37966 ft | 443 kts | 190° |
| 2026-05-05 11:16 | 54.92729 | 9.77493 | 37965 ft | 443 kts | 190° |
| 2026-05-05 11:16 | 54.86596 | 9.76371 | 37936 ft | 443 kts | 190° |
| 2026-05-05 11:17 | 54.80459 | 9.75252 | 37958 ft | 443 kts | 189° |
| 2026-05-05 11:17 | 54.74330 | 9.74137 | 37959 ft | 443 kts | 189° |
| 2026-05-05 11:18 | 54.68199 | 9.73026 | 37962 ft | 443 kts | 189° |
| 2026-05-05 11:18 | 54.62069 | 9.71918 | 37961 ft | 443 kts | 189° |
| 2026-05-05 11:19 | 54.55948 | 9.70815 | 37950 ft | 442 kts | 189° |
| 2026-05-05 11:19 | 54.49848 | 9.69719 | 37963 ft | 440 kts | 189° |
| 2026-05-05 11:20 | 54.43761 | 9.68629 | 37966 ft | 440 kts | 189° |
| 2026-05-05 11:20 | 54.37675 | 9.67542 | 37938 ft | 440 kts | 189° |
| 2026-05-05 11:21 | 54.31595 | 9.66460 | 37933 ft | 438 kts | 189° |
| 2026-05-05 11:21 | 54.25527 | 9.65383 | 37938 ft | 438 kts | 189° |
| 2026-05-05 11:22 | 54.19462 | 9.64310 | 37936 ft | 438 kts | 189° |
| 2026-05-05 11:22 | 54.13396 | 9.63239 | 37937 ft | 438 kts | 189° |
| 2026-05-05 11:23 | 54.08359 | 9.62353 | 37932 ft | 437 kts | 189° |
| 2026-05-05 11:23 | 54.02308 | 9.61290 | 37930 ft | 437 kts | 189° |
| 2026-05-05 11:24 | 53.96260 | 9.60232 | 37936 ft | 437 kts | 189° |
| 2026-05-05 11:24 | 53.90213 | 9.59177 | 37932 ft | 437 kts | 189° |
| 2026-05-05 11:25 | 53.84168 | 9.58125 | 37912 ft | 436 kts | 189° |
| 2026-05-05 11:25 | 53.78131 | 9.57078 | 37927 ft | 436 kts | 189° |
| 2026-05-05 11:26 | 53.72103 | 9.56035 | 37934 ft | 436 kts | 189° |
| 2026-05-05 11:26 | 53.66075 | 9.54996 | 37934 ft | 435 kts | 189° |
| 2026-05-05 11:27 | 53.60043 | 9.53958 | 37918 ft | 435 kts | 189° |
| 2026-05-05 11:27 | 53.54031 | 9.52927 | 37930 ft | 434 kts | 189° |
| 2026-05-05 11:28 | 53.48023 | 9.51900 | 37931 ft | 434 kts | 189° |
| 2026-05-05 11:28 | 53.42020 | 9.50876 | 37918 ft | 434 kts | 189° |
| 2026-05-05 11:29 | 53.36014 | 9.49855 | 37905 ft | 434 kts | 189° |
| 2026-05-05 11:29 | 53.30034 | 9.48745 | 37911 ft | 430 kts | 195° |
| 2026-05-05 11:29 | 53.27212 | 9.47272 | 37924 ft | 423 kts | 206° |
| 2026-05-05 11:30 | 53.24489 | 9.45400 | 37894 ft | 425 kts | 204° |
| 2026-05-05 11:30 | 53.19008 | 9.41875 | 37934 ft | 425 kts | 204° |
| 2026-05-05 11:31 | 53.13484 | 9.38359 | 37927 ft | 425 kts | 204° |
| 2026-05-05 11:31 | 53.07960 | 9.34857 | 37932 ft | 425 kts | 204° |
| 2026-05-05 11:32 | 53.02430 | 9.31360 | 37917 ft | 425 kts | 204° |
| 2026-05-05 11:32 | 52.96902 | 9.27874 | 37912 ft | 425 kts | 204° |
| 2026-05-05 11:33 | 52.91368 | 9.24394 | 37921 ft | 425 kts | 204° |
| 2026-05-05 11:33 | 52.85836 | 9.20925 | 37914 ft | 426 kts | 204° |
| 2026-05-05 11:34 | 52.80281 | 9.17451 | 37911 ft | 427 kts | 204° |
| 2026-05-05 11:34 | 52.74742 | 9.13996 | 37907 ft | 427 kts | 204° |
| 2026-05-05 11:35 | 52.69183 | 9.10538 | 37909 ft | 427 kts | 204° |
| 2026-05-05 11:35 | 52.63623 | 9.07088 | 37892 ft | 427 kts | 204° |
| 2026-05-05 11:36 | 52.58051 | 9.03642 | 37904 ft | 428 kts | 204° |
| 2026-05-05 11:36 | 52.52495 | 9.00214 | 37920 ft | 428 kts | 203° |
| 2026-05-05 11:37 | 52.46924 | 8.96786 | 37786 ft | 426 kts | 203° |
| 2026-05-05 11:37 | 52.44145 | 8.95079 | 36950 ft | 427 kts | 204° |
| 2026-05-05 11:37 | 52.41366 | 8.93375 | 36193 ft | 426 kts | 204° |
| 2026-05-05 11:37 | 52.38600 | 8.91681 | 35600 ft | 422 kts | 204° |
| 2026-05-05 11:38 | 52.35894 | 8.90026 | 34888 ft | 421 kts | 205° |
| 2026-05-05 11:38 | 52.33154 | 8.88354 | 34216 ft | 418 kts | 205° |
| 2026-05-05 11:38 | 52.30442 | 8.86699 | 33456 ft | 416 kts | 205° |
| 2026-05-05 11:38 | 52.27715 | 8.85042 | 32363 ft | 421 kts | 205° |
| 2026-05-05 11:39 | 52.24961 | 8.83368 | 31382 ft | 424 kts | 204° |
| 2026-05-05 11:39 | 52.22197 | 8.81688 | 30614 ft | 423 kts | 204° |
| 2026-05-05 11:39 | 52.19454 | 8.80024 | 30010 ft | 418 kts | 204° |
| 2026-05-05 11:39 | 52.16742 | 8.78380 | 29316 ft | 414 kts | 203° |
| 2026-05-05 11:40 | 52.14056 | 8.76753 | 28684 ft | 410 kts | 203° |
| 2026-05-05 11:40 | 52.11398 | 8.75145 | 28067 ft | 409 kts | 202° |
| 2026-05-05 11:40 | 52.08714 | 8.73525 | 27425 ft | 413 kts | 202° |
| 2026-05-05 11:40 | 52.06021 | 8.71902 | 26798 ft | 415 kts | 202° |
| 2026-05-05 11:41 | 52.03311 | 8.70270 | 26155 ft | 413 kts | 202° |
| 2026-05-05 11:41 | 52.00667 | 8.68483 | 25926 ft | 411 kts | 211° |
| 2026-05-05 11:41 | 51.98420 | 8.65670 | 25891 ft | 409 kts | 227° |
| 2026-05-05 11:41 | 51.96742 | 8.61962 | 25882 ft | 409 kts | 239° |
| 2026-05-05 11:42 | 51.95277 | 8.57991 | 25876 ft | 412 kts | 239° |
| 2026-05-05 11:42 | 51.93842 | 8.53968 | 25873 ft | 413 kts | 239° |
| 2026-05-05 11:42 | 51.92422 | 8.49921 | 25001 ft | 416 kts | 240° |
| 2026-05-05 11:42 | 51.91000 | 8.45821 | 24099 ft | 420 kts | 240° |
| 2026-05-05 11:43 | 51.89569 | 8.41675 | 23169 ft | 423 kts | 240° |
| 2026-05-05 11:43 | 51.88128 | 8.37499 | 22154 ft | 426 kts | 240° |
| 2026-05-05 11:43 | 51.86691 | 8.33334 | 21444 ft | 422 kts | 240° |
| 2026-05-05 11:43 | 51.85272 | 8.29229 | 20964 ft | 413 kts | 240° |
| 2026-05-05 11:44 | 51.83890 | 8.25238 | 20441 ft | 407 kts | 240° |
| 2026-05-05 11:44 | 51.82517 | 8.21277 | 19913 ft | 401 kts | 240° |
| 2026-05-05 11:44 | 51.81159 | 8.17367 | 19401 ft | 396 kts | 240° |
| 2026-05-05 11:44 | 51.79818 | 8.13512 | 18881 ft | 392 kts | 240° |
| 2026-05-05 11:45 | 51.78488 | 8.09694 | 18369 ft | 388 kts | 240° |
| 2026-05-05 11:45 | 51.77169 | 8.05914 | 17813 ft | 385 kts | 240° |
| 2026-05-05 11:45 | 51.75860 | 8.02169 | 17286 ft | 381 kts | 239° |
| 2026-05-05 11:45 | 51.74566 | 7.98469 | 16786 ft | 377 kts | 239° |
| 2026-05-05 11:46 | 51.73284 | 7.94809 | 16293 ft | 373 kts | 239° |
| 2026-05-05 11:46 | 51.72012 | 7.91187 | 15814 ft | 369 kts | 239° |
| 2026-05-05 11:46 | 51.70754 | 7.87607 | 15332 ft | 366 kts | 239° |
| 2026-05-05 11:46 | 51.69503 | 7.84050 | 14851 ft | 363 kts | 239° |
| 2026-05-05 11:47 | 51.68259 | 7.80521 | 14381 ft | 360 kts | 239° |
| 2026-05-05 11:47 | 51.67039 | 7.77065 | 13914 ft | 349 kts | 239° |
| 2026-05-05 11:47 | 51.65866 | 7.73744 | 13447 ft | 335 kts | 239° |
| 2026-05-05 11:47 | 51.64733 | 7.70545 | 12977 ft | 322 kts | 239° |
| 2026-05-05 11:48 | 51.62596 | 7.64513 | 12136 ft | 299 kts | 239° |
| 2026-05-05 11:48 | 51.61583 | 7.61661 | 11763 ft | 288 kts | 239° |
| 2026-05-05 11:48 | 51.60605 | 7.58907 | 11391 ft | 278 kts | 238° |
| 2026-05-05 11:49 | 51.59658 | 7.56248 | 11029 ft | 270 kts | 238° |
| 2026-05-05 11:49 | 51.58754 | 7.53710 | 10676 ft | 262 kts | 238° |
| 2026-05-05 11:49 | 51.57861 | 7.51205 | 10345 ft | 254 kts | 238° |
| 2026-05-05 11:49 | 51.56979 | 7.48734 | 10008 ft | 250 kts | 238° |
| 2026-05-05 11:50 | 51.56112 | 7.46311 | 9688 ft | 249 kts | 238° |
| 2026-05-05 11:50 | 51.55249 | 7.43898 | 9337 ft | 250 kts | 238° |
| 2026-05-05 11:50 | 51.54392 | 7.41505 | 9000 ft | 251 kts | 238° |
| 2026-05-05 11:50 | 51.53520 | 7.39070 | 8655 ft | 252 kts | 238° |
| 2026-05-05 11:51 | 51.52647 | 7.36636 | 8333 ft | 252 kts | 238° |
| 2026-05-05 11:51 | 51.51771 | 7.34197 | 8010 ft | 252 kts | 238° |
| 2026-05-05 11:51 | 51.50892 | 7.31751 | 7669 ft | 253 kts | 238° |
| 2026-05-05 11:51 | 51.50011 | 7.29303 | 7334 ft | 253 kts | 238° |
| 2026-05-05 11:52 | 51.49128 | 7.26851 | 7009 ft | 254 kts | 238° |
| 2026-05-05 11:52 | 51.48243 | 7.24394 | 6670 ft | 255 kts | 238° |
| 2026-05-05 11:52 | 51.47363 | 7.21955 | 6365 ft | 253 kts | 238° |
| 2026-05-05 11:52 | 51.46487 | 7.19529 | 6031 ft | 252 kts | 238° |
| 2026-05-05 11:53 | 51.45610 | 7.17101 | 5713 ft | 251 kts | 238° |
| 2026-05-05 11:53 | 51.44739 | 7.14695 | 5389 ft | 249 kts | 238° |
| 2026-05-05 11:53 | 51.43870 | 7.12297 | 5067 ft | 248 kts | 239° |
| 2026-05-05 11:53 | 51.43005 | 7.09909 | 4750 ft | 248 kts | 238° |
| 2026-05-05 11:54 | 51.42140 | 7.07523 | 4400 ft | 247 kts | 238° |
| 2026-05-05 11:54 | 51.41287 | 7.05168 | 4067 ft | 243 kts | 238° |
| 2026-05-05 11:54 | 51.40454 | 7.02871 | 3747 ft | 234 kts | 240° |
| 2026-05-05 11:54 | 51.39760 | 7.00577 | 3489 ft | 224 kts | 242° |
| 2026-05-05 11:55 | 51.38970 | 6.98472 | 3223 ft | 217 kts | 235° |
| 2026-05-05 11:55 | 51.38105 | 6.96540 | 2959 ft | 210 kts | 233° |
| 2026-05-05 11:55 | 51.37247 | 6.94732 | 2695 ft | 198 kts | 232° |
| 2026-05-05 11:55 | 51.36462 | 6.93083 | 2457 ft | 175 kts | 233° |
| 2026-05-05 11:56 | 51.35744 | 6.91570 | 2214 ft | 169 kts | 234° |
| 2026-05-05 11:56 | 51.35034 | 6.90074 | 2002 ft | 169 kts | 234° |
| 2026-05-05 11:56 | 51.34319 | 6.88567 | 1783 ft | 170 kts | 235° |
| 2026-05-05 11:56 | 51.33605 | 6.87065 | 1559 ft | 166 kts | 235° |
| 2026-05-05 11:57 | 51.32933 | 6.85649 | 1340 ft | 156 kts | 236° |
| 2026-05-05 11:57 | 51.32292 | 6.84297 | 1146 ft | 150 kts | 234° |
| 2026-05-05 11:57 | 51.31657 | 6.82969 | 919 ft | 150 kts | 235° |
| 2026-05-05 11:57 | 51.31033 | 6.81648 | 725 ft | 148 kts | 236° |
| 2026-05-05 11:58 | 51.30413 | 6.80345 | 494 ft | 147 kts | 236° |
| 2026-05-05 11:58 | 51.29803 | 6.79057 | 300 ft | 143 kts | 236° |
| 2026-05-05 11:58 | 51.29206 | 6.77817 | 141 ft | 136 kts | 237° |
| 2026-05-05 11:58 | 51.28704 | 6.76764 | 131 ft | 98 kts | 232° |
| 2026-05-05 11:59 | 51.28416 | 6.76158 | 132 ft | 34 kts | 232° |
| 2026-05-05 11:59 | 51.28236 | 6.75981 | 127 ft | 19 kts | 204° |
| 2026-05-05 11:59 | 51.28132 | 6.75904 | 130 ft | 16 kts | 205° |
| 2026-05-05 11:59 | 51.28108 | 6.75886 | 131 ft | 0 kts | 205° |
| 2026-05-05 12:00 | 51.28101 | 6.75881 | 132 ft | 0 kts | 205° |
| 2026-05-05 12:00 | 51.28098 | 6.75879 | 132 ft | 2 kts | 205° |
| 2026-05-05 12:01 | 51.28044 | 6.75839 | 132 ft | 12 kts | 204° |
| 2026-05-05 12:01 | 51.27959 | 6.75821 | 129 ft | 13 kts | 184° |
| 2026-05-05 12:01 | 51.27880 | 6.75816 | 131 ft | 10 kts | 178° |
| 2026-05-05 12:01 | 51.27845 | 6.75885 | 131 ft | 8 kts | 94° |
| 2026-05-05 12:02 | 51.27844 | 6.75939 | 131 ft | 3 kts | 92° |
| 2026-05-05 12:02 | 51.27843 | 6.76001 | 131 ft | 7 kts | 89° |
| 2026-05-05 12:02 | 51.27844 | 6.76041 | 131 ft | 5 kts | 82° |
| 2026-05-05 12:02 | 51.27858 | 6.76105 | 127 ft | 7 kts | 60° |
| 2026-05-05 12:03 | 51.27877 | 6.76160 | 131 ft | 4 kts | 61° |
| 2026-05-05 12:03 | 51.27889 | 6.76195 | 129 ft | 3 kts | 61° |
| 2026-05-05 12:03 | 51.27899 | 6.76223 | 130 ft | 2 kts | 60° |
| 2026-05-05 12:03 | 51.27904 | 6.76238 | 128 ft | 1 kts | 61° |